createdAt,value
2022-12-31T00:06:40.545Z,4.40
2022-12-31T00:11:34.750Z,4.57
2022-12-31T00:26:55.061Z,5.50
2022-12-31T00:31:46.735Z,6.33
2022-12-31T00:36:39.908Z,6.43
2022-12-31T00:41:32.142Z,7.90
2022-12-31T00:46:25.147Z,6.57
2022-12-31T00:51:20.291Z,6.50
2022-12-31T01:12:16.529Z,8.47
2022-12-31T01:17:08.312Z,9.47
2022-12-31T01:22:00.038Z,9.57
2022-12-31T01:26:52.031Z,9.43
2022-12-31T01:47:05.790Z,9.23
2022-12-31T01:52:10.835Z,10.60
2022-12-31T01:57:05.122Z,9.87
2022-12-31T02:01:57.203Z,9.87
2022-12-31T02:07:06.902Z,10.50
2022-12-31T02:11:58.834Z,10.60
2022-12-31T02:17:11.346Z,10.57
2022-12-31T02:23:05.130Z,9.87
2022-12-31T02:28:33.530Z,8.97
2022-12-31T02:33:43.055Z,8.57
2022-12-31T02:38:42.204Z,8.27
2022-12-31T02:43:34.763Z,7.83
2022-12-31T02:48:46.805Z,7.10
2022-12-31T02:54:18.763Z,7.80
2022-12-31T02:59:59.460Z,7.10
2022-12-31T03:04:55.107Z,7.60
2022-12-31T03:09:47.227Z,6.53
2022-12-31T03:14:39.026Z,3.93
2022-12-31T03:19:49.462Z,4.90
2022-12-31T03:24:59.723Z,3.40
2022-12-31T03:29:51.402Z,3.33
2022-12-31T03:39:48.849Z,2.13
2022-12-31T03:44:40.542Z,1.20
2022-12-31T03:49:32.284Z,1.10
2022-12-31T03:54:23.967Z,1.00
2022-12-31T03:59:15.693Z,0.70
2022-12-31T04:04:07.362Z,0.60
2022-12-31T04:08:59.153Z,0.73
2022-12-31T04:13:50.826Z,0.60
2022-12-31T04:18:42.516Z,0.60
2022-12-31T04:23:34.256Z,0.80
2022-12-31T04:28:25.935Z,0.60
2022-12-31T04:33:17.691Z,1.10
2022-12-31T04:38:09.408Z,1.03
2022-12-31T04:43:01.102Z,0.73
2022-12-31T04:47:52.783Z,0.70
2022-12-31T04:52:44.493Z,0.60
2022-12-31T04:57:36.228Z,0.50
2022-12-31T05:02:34.076Z,0.60
2022-12-31T05:07:26.228Z,0.57
2022-12-31T05:12:22.024Z,0.60
2022-12-31T05:22:31.608Z,0.70
2022-12-31T05:32:30.059Z,0.70
2022-12-31T05:37:22.999Z,0.50
2022-12-31T05:42:16.196Z,0.90
2022-12-31T05:47:08.076Z,0.60
2022-12-31T05:52:00.656Z,0.50
2022-12-31T05:56:54.276Z,0.40
2022-12-31T06:11:58.137Z,0.40
2022-12-31T06:16:51.084Z,0.40
2022-12-31T06:21:42.971Z,0.50
2022-12-31T06:31:42.830Z,0.93
2022-12-31T06:36:34.973Z,0.47
2022-12-31T06:41:27.806Z,1.00
2022-12-31T06:46:21.572Z,0.87
2022-12-31T06:51:21.715Z,0.80
2022-12-31T06:56:34.746Z,0.50
2022-12-31T07:02:13.676Z,0.80
2022-12-31T07:07:24.866Z,0.93
2022-12-31T07:12:53.245Z,0.80
2022-12-31T07:18:18.878Z,2.43
2022-12-31T07:23:11.162Z,1.27
2022-12-31T07:28:50.592Z,1.27
2022-12-31T07:33:45.764Z,1.30
2022-12-31T07:39:15.737Z,2.10
2022-12-31T07:44:42.065Z,1.30
2022-12-31T07:49:36.657Z,2.37
2022-12-31T08:00:18.034Z,1.90
2022-12-31T08:05:34.973Z,1.80
2022-12-31T08:10:49.952Z,1.27
2022-12-31T08:15:42.751Z,1.20
2022-12-31T08:20:55.187Z,0.97
2022-12-31T08:36:44.332Z,1.30
2022-12-31T08:41:49.027Z,1.73
2022-12-31T08:52:22.012Z,1.33
2022-12-31T08:57:44.636Z,1.93
2022-12-31T09:03:25.009Z,2.10
2022-12-31T09:14:27.213Z,1.93
2022-12-31T09:19:23.319Z,1.30
2022-12-31T09:29:57.100Z,0.80
2022-12-31T09:35:27.216Z,0.68
2022-12-31T09:41:01.934Z,0.90
2022-12-31T09:46:31.826Z,0.70
2022-12-31T09:51:46.581Z,0.63
2022-12-31T10:03:01.499Z,0.40
2022-12-31T10:19:56.430Z,0.32
2022-12-31T10:25:49.906Z,0.50
2022-12-31T10:31:11.945Z,0.50
2022-12-31T10:41:41.470Z,0.45
2022-12-31T10:47:13.180Z,0.57
2022-12-31T10:52:27.454Z,0.40
2022-12-31T10:57:34.404Z,0.45
2022-12-31T11:03:29.031Z,0.30
2022-12-31T11:09:27.426Z,0.40
2022-12-31T11:15:14.056Z,0.40
2022-12-31T11:32:04.673Z,0.40
2022-12-31T11:48:42.961Z,0.50
2022-12-31T11:54:12.758Z,0.40
2022-12-31T11:59:18.883Z,0.80
2022-12-31T12:04:13.653Z,0.40
2022-12-31T12:14:46.720Z,0.40
2022-12-31T12:19:47.119Z,0.40
2022-12-31T12:24:40.513Z,1.30
2022-12-31T12:29:43.649Z,1.20
2022-12-31T12:34:47.739Z,1.52
2022-12-31T12:44:48.929Z,1.98
2022-12-31T12:55:28.820Z,2.00
2022-12-31T13:06:20.627Z,1.83
2022-12-31T13:11:45.012Z,1.95
2022-12-31T13:22:43.848Z,1.98
2022-12-31T13:27:49.578Z,1.98
2022-12-31T13:54:48.198Z,2.60
2022-12-31T14:10:19.312Z,1.67
2022-12-31T14:21:08.993Z,1.83
2022-12-31T14:26:16.329Z,1.85
2022-12-31T14:31:53.317Z,2.17
2022-12-31T14:43:07.373Z,2.13
2022-12-31T14:48:40.571Z,2.70
2022-12-31T15:04:00.046Z,3.50
2022-12-31T15:09:33.677Z,3.17
2022-12-31T15:15:14.994Z,2.90
2022-12-31T15:20:37.535Z,3.37
2022-12-31T15:25:41.818Z,3.77
2022-12-31T15:30:51.717Z,3.60
2022-12-31T15:35:52.981Z,4.03
2022-12-31T15:40:52.176Z,3.27
2022-12-31T15:45:53.298Z,3.30
2022-12-31T15:50:49.764Z,3.33
2022-12-31T16:01:22.789Z,3.33
2022-12-31T16:06:18.088Z,3.70
2022-12-31T16:11:11.617Z,3.40
2022-12-31T16:21:39.227Z,3.50
2022-12-31T16:26:50.334Z,13.17
2022-12-31T16:31:47.920Z,26.23
2022-12-31T16:36:40.399Z,8.87
2022-12-31T16:41:44.188Z,4.80
2022-12-31T16:46:36.964Z,4.20
2022-12-31T16:51:37.376Z,3.83
2022-12-31T16:56:40.954Z,3.30
2022-12-31T17:01:40.949Z,3.60
2022-12-31T17:06:34.099Z,4.30
2022-12-31T17:11:38.465Z,4.50
2022-12-31T17:16:30.759Z,5.30
2022-12-31T17:21:31.151Z,6.20
2022-12-31T17:26:28.557Z,8.27
2022-12-31T17:31:44.566Z,8.10
2022-12-31T17:36:37.199Z,7.87
2022-12-31T17:41:29.783Z,8.50
2022-12-31T17:46:32.806Z,7.23
2022-12-31T17:51:25.891Z,8.27
2022-12-31T17:56:23.515Z,16.03
2022-12-31T18:01:19.802Z,29.10
2022-12-31T18:06:16.582Z,22.23
2022-12-31T18:11:19.937Z,13.83
2022-12-31T18:16:12.716Z,11.97
2022-12-31T18:21:11.665Z,12.83
2022-12-31T18:26:03.590Z,10.00
2022-12-31T18:30:56.244Z,11.60
2022-12-31T18:36:10.405Z,11.80
2022-12-31T18:41:05.381Z,12.13
2022-12-31T18:45:59.082Z,9.47
2022-12-31T18:50:52.737Z,11.07
2022-12-31T18:55:52.192Z,13.30
2022-12-31T19:05:55.516Z,14.17
2022-12-31T19:15:56.574Z,18.60
2022-12-31T19:20:48.596Z,17.53
2022-12-31T19:25:42.395Z,14.70
2022-12-31T19:41:22.149Z,10.17
2022-12-31T19:51:26.977Z,8.60
2022-12-31T19:56:20.487Z,8.57
2022-12-31T20:01:24.511Z,8.00
2022-12-31T20:06:22.622Z,8.67
2022-12-31T20:11:19.539Z,8.80
2022-12-31T20:16:17.400Z,11.53
2022-12-31T20:21:21.837Z,10.23
2022-12-31T20:31:25.280Z,11.60
2022-12-31T20:36:18.237Z,11.67
2022-12-31T20:41:23.129Z,11.17
2022-12-31T20:56:44.052Z,11.10
2022-12-31T21:02:20.118Z,13.63
2022-12-31T21:06:57.903Z,20.63
2022-12-31T21:17:16.371Z,16.17
2022-12-31T21:27:24.414Z,70.73
2022-12-31T21:32:19.152Z,23.70
2022-12-31T22:13:47.752Z,35.73
2022-12-31T22:23:53.407Z,36.57
2022-12-31T22:29:02.691Z,35.17
